Time;durP1;ratioP1;P1;durP2;ratioP2;P2;SDS_P1;SDS_P2;PMS_P1;PMS_P2;Temp;Humidity;BMP_temperature;BMP_pressure;BME280_temperature;BME280_humidity;BME280_pressure;Samples;Min_cycle;Max_cycle;Signal;HPM_P1;HPM_P2
2023/10/01 00:01:34;;;;;;;476.63;211.90;;;;;;;;;;4982805;28;20217;-74
2023/10/01 00:04:06;;;;;;;461.33;202.90;;;;;;;;;;4982607;28;20189;-74
2023/10/01 00:06:34;;;;;;;491.43;217.20;;;;;;;;;;4983978;28;20178;-74
2023/10/01 00:09:00;;;;;;;445.73;187.70;;;;;;;;;;4982218;28;20679;-74
2023/10/01 00:11:27;;;;;;;447.73;196.13;;;;;;;;;;4978348;28;20749;-74
2023/10/01 00:13:52;;;;;;;456.43;199.23;;;;;;;;;;5002245;28;20220;-74
2023/10/01 00:16:18;;;;;;;447.37;194.80;;;;;;;;;;4985123;28;20209;-74
2023/10/01 00:18:47;;;;;;;458.03;197.13;;;;;;;;;;4986833;28;20437;-74
2023/10/01 00:21:13;;;;;;;458.27;195.23;;;;;;;;;;4979617;28;20208;-74
2023/10/01 00:23:40;;;;;;;485.60;207.47;;;;;;;;;;4984792;28;20248;-74
2023/10/01 00:26:06;;;;;;;442.00;188.50;;;;;;;;;;4974750;28;20225;-74
2023/10/01 00:28:32;;;;;;;474.40;209.70;;;;;;;;;;4984665;28;20217;-74
2023/10/01 00:30:58;;;;;;;425.40;182.30;;;;;;;;;;4985876;28;20186;-74
2023/10/01 00:33:24;;;;;;;470.90;208.47;;;;;;;;;;4985180;28;20302;-74
2023/10/01 00:35:50;;;;;;;438.87;185.77;;;;;;;;;;4977385;28;20225;-74
2023/10/01 00:38:16;;;;;;;467.57;203.90;;;;;;;;;;4985153;28;20837;-75
2023/10/01 00:40:45;;;;;;;460.57;201.97;;;;;;;;;;4979559;28;20218;-74
2023/10/01 00:43:11;;;;;;;476.37;211.20;;;;;;;;;;4985308;28;20588;-74
2023/10/01 00:45:37;;;;;;;466.83;208.80;;;;;;;;;;4983603;28;20196;-74
2023/10/01 00:48:05;;;;;;;441.50;187.03;;;;;;;;;;4982267;28;20217;-74
2023/10/01 00:50:32;;;;;;;452.40;190.37;;;;;;;;;;4983184;28;20225;-74
2023/10/01 00:53:00;;;;;;;441.10;187.90;;;;;;;;;;4977806;28;20248;-74
2023/10/01 00:55:26;;;;;;;448.33;191.93;;;;;;;;;;4986176;28;20806;-74
2023/10/01 00:57:53;;;;;;;458.57;195.03;;;;;;;;;;4979096;28;20191;-74
2023/10/01 01:00:19;;;;;;;474.50;205.00;;;;;;;;;;4974212;28;20201;-75
2023/10/01 01:02:57;;;;;;;489.17;214.63;;;;;;;;;;4979544;28;20250;-75
2023/10/01 01:05:23;;;;;;;442.90;186.70;;;;;;;;;;4987578;28;21042;-74
2023/10/01 01:07:50;;;;;;;447.57;195.30;;;;;;;;;;4985314;28;20213;-75
2023/10/01 01:10:19;;;;;;;457.17;191.13;;;;;;;;;;4982818;28;20310;-75
2023/10/01 01:12:54;;;;;;;486.27;214.43;;;;;;;;;;4977113;28;20302;-75
2023/10/01 01:15:21;;;;;;;485.60;210.00;;;;;;;;;;4983867;28;20217;-74
2023/10/01 01:17:48;;;;;;;456.13;192.13;;;;;;;;;;4979271;28;20220;-74
2023/10/01 01:20:14;;;;;;;483.80;210.33;;;;;;;;;;4985560;28;20225;-75
2023/10/01 01:22:50;;;;;;;468.13;204.73;;;;;;;;;;4981984;28;20206;-74
2023/10/01 01:25:20;;;;;;;457.00;196.40;;;;;;;;;;4976877;28;20213;-74
2023/10/01 01:27:46;;;;;;;476.57;208.00;;;;;;;;;;4979085;28;20235;-74
2023/10/01 01:30:18;;;;;;;446.40;189.63;;;;;;;;;;4982853;28;20216;-74
2023/10/01 01:32:45;;;;;;;459.83;196.70;;;;;;;;;;4986957;28;20273;-74
2023/10/01 01:35:11;;;;;;;494.80;215.43;;;;;;;;;;4980082;28;20260;-74
2023/10/01 01:37:46;;;;;;;451.30;194.97;;;;;;;;;;4981501;28;20304;-76
2023/10/01 01:40:25;;;;;;;454.63;191.87;;;;;;;;;;4982130;28;20228;-74
2023/10/01 01:42:56;;;;;;;449.43;189.67;;;;;;;;;;4981126;28;20186;-74
2023/10/01 01:45:25;;;;;;;456.13;196.03;;;;;;;;;;4999068;28;20213;-74
2023/10/01 01:47:52;;;;;;;455.80;194.70;;;;;;;;;;4991484;28;20244;-75
2023/10/01 01:50:19;;;;;;;454.70;194.67;;;;;;;;;;4980355;28;20229;-75
2023/10/01 01:52:47;;;;;;;460.57;198.90;;;;;;;;;;4984962;28;20720;-74
2023/10/01 01:55:23;;;;;;;442.30;189.17;;;;;;;;;;4977750;28;20213;-74
2023/10/01 01:58:02;;;;;;;471.67;206.20;;;;;;;;;;4985051;28;20662;-73
2023/10/01 02:00:34;;;;;;;452.50;191.70;;;;;;;;;;4979878;28;20683;-75
2023/10/01 02:03:02;;;;;;;465.93;202.27;;;;;;;;;;4982281;28;20236;-75
2023/10/01 02:05:29;;;;;;;437.03;184.37;;;;;;;;;;4986872;28;20209;-74
2023/10/01 02:07:55;;;;;;;440.87;188.10;;;;;;;;;;4984371;28;20206;-74
2023/10/01 02:10:21;;;;;;;472.40;207.07;;;;;;;;;;4979194;28;20217;-75
2023/10/01 02:12:47;;;;;;;474.20;208.57;;;;;;;;;;4987376;28;20204;-74
2023/10/01 02:15:14;;;;;;;465.27;204.37;;;;;;;;;;4991222;28;20315;-74
2023/10/01 02:17:40;;;;;;;450.10;190.40;;;;;;;;;;4995000;28;20243;-74
2023/10/01 02:20:15;;;;;;;444.63;193.67;;;;;;;;;;4983743;28;20315;-74
2023/10/01 02:22:43;;;;;;;433.57;184.67;;;;;;;;;;4989181;28;20226;-74
2023/10/01 02:25:10;;;;;;;466.63;201.80;;;;;;;;;;4984226;28;20601;-74
2023/10/01 02:27:47;;;;;;;430.90;183.40;;;;;;;;;;4982810;28;20547;-74
2023/10/01 02:30:16;;;;;;;468.93;202.67;;;;;;;;;;4988905;28;20221;-74
2023/10/01 02:32:49;;;;;;;452.77;196.50;;;;;;;;;;4983371;28;20240;-74
2023/10/01 02:35:34;;;;;;;458.00;194.10;;;;;;;;;;4981623;28;20466;-74
2023/10/01 02:38:03;;;;;;;468.50;201.43;;;;;;;;;;4988863;28;20229;-74
2023/10/01 02:40:36;;;;;;;442.80;190.77;;;;;;;;;;5002175;28;20233;-74
2023/10/01 02:43:05;;;;;;;430.60;182.67;;;;;;;;;;4986022;28;20189;-74
2023/10/01 02:45:32;;;;;;;459.43;199.07;;;;;;;;;;4990269;28;20200;-74
2023/10/01 02:48:16;;;;;;;461.50;197.90;;;;;;;;;;4984615;28;20214;-74
2023/10/01 02:50:45;;;;;;;450.57;193.60;;;;;;;;;;4982735;28;20383;-74
2023/10/01 02:53:11;;;;;;;439.27;189.83;;;;;;;;;;4986399;28;20603;-74
2023/10/01 02:55:44;;;;;;;452.63;197.40;;;;;;;;;;4988960;28;20242;-74
2023/10/01 02:58:17;;;;;;;431.63;184.50;;;;;;;;;;4981419;28;20559;-74
2023/10/01 03:00:43;;;;;;;463.47;199.73;;;;;;;;;;4984584;28;20193;-74
2023/10/01 03:03:14;;;;;;;446.03;194.53;;;;;;;;;;4980274;28;20228;-75
2023/10/01 03:05:43;;;;;;;449.07;191.37;;;;;;;;;;4984144;28;20213;-74
2023/10/01 03:08:25;;;;;;;447.17;191.40;;;;;;;;;;4984613;28;20221;-75
2023/10/01 03:10:52;;;;;;;450.67;198.83;;;;;;;;;;4979693;28;20217;-74
2023/10/01 03:13:22;;;;;;;443.80;187.73;;;;;;;;;;4979422;28;20458;-74
2023/10/01 03:16:39;;;;;;;459.37;200.33;;;;;;;;;;4980960;28;20189;-74
2023/10/01 03:18:34;;;;;;;450.50;192.47;;;;;;;;;;4986162;28;20811;-74
2023/10/01 03:21:17;;;;;;;440.77;192.47;;;;;;;;;;4983796;28;20654;-74
2023/10/01 03:23:53;;;;;;;463.23;197.53;;;;;;;;;;5004294;28;20215;-74
2023/10/01 03:26:20;;;;;;;460.10;197.17;;;;;;;;;;4995104;28;22101;-74
2023/10/01 03:31:30;;;;;;;451.10;192.20;;;;;;;;;;4984910;28;20252;-74
2023/10/01 03:33:58;;;;;;;486.77;211.30;;;;;;;;;;4982067;28;20184;-74
2023/10/01 03:36:25;;;;;;;429.23;183.53;;;;;;;;;;4983749;28;20251;-76
2023/10/01 03:38:57;;;;;;;442.47;189.00;;;;;;;;;;4981071;28;20246;-74
2023/10/01 03:41:24;;;;;;;422.17;176.63;;;;;;;;;;4986089;28;20682;-74
2023/10/01 03:43:51;;;;;;;431.20;179.10;;;;;;;;;;4984450;28;20212;-74
2023/10/01 03:46:26;;;;;;;468.37;199.53;;;;;;;;;;4987084;28;20206;-74
2023/10/01 03:51:53;;;;;;;460.40;197.60;;;;;;;;;;4986241;28;20195;-74
2023/10/01 03:54:20;;;;;;;453.17;200.03;;;;;;;;;;4981461;28;20782;-74
2023/10/01 03:56:56;;;;;;;472.13;201.83;;;;;;;;;;4981521;28;20240;-74
2023/10/01 03:59:23;;;;;;;445.97;190.50;;;;;;;;;;4994401;28;20288;-74
2023/10/01 04:02:27;;;;;;;454.37;191.50;;;;;;;;;;4986116;28;20760;-74
2023/10/01 04:05:02;;;;;;;446.80;184.43;;;;;;;;;;4985317;28;20217;-74
2023/10/01 04:07:42;;;;;;;434.60;182.13;;;;;;;;;;4981092;28;20217;-74
2023/10/01 04:12:54;;;;;;;448.47;193.30;;;;;;;;;;4986079;28;20326;-74
2023/10/01 04:15:27;;;;;;;511.00;222.40;;;;;;;;;;4987375;28;20200;-74
2023/10/01 04:20:48;;;;;;;426.43;178.23;;;;;;;;;;4982108;28;20212;-74
2023/10/01 04:23:29;;;;;;;436.30;186.80;;;;;;;;;;4989721;28;20228;-73
2023/10/01 04:26:06;;;;;;;452.50;197.23;;;;;;;;;;4985830;28;20220;-73
2023/10/01 04:28:35;;;;;;;431.43;182.07;;;;;;;;;;4982891;28;20300;-73
2023/10/01 04:31:09;;;;;;;442.13;190.87;;;;;;;;;;4978595;28;20189;-73
2023/10/01 04:33:35;;;;;;;449.20;188.03;;;;;;;;;;4982177;28;20216;-73
2023/10/01 04:36:02;;;;;;;459.43;197.80;;;;;;;;;;4988401;28;20561;-73
2023/10/01 04:38:32;;;;;;;452.37;191.23;;;;;;;;;;4982209;28;20623;-73
2023/10/01 04:40:58;;;;;;;458.83;198.43;;;;;;;;;;4995002;28;20213;-73
2023/10/01 04:43:31;;;;;;;462.50;197.10;;;;;;;;;;4989199;28;20223;-73
2023/10/01 04:46:00;;;;;;;482.10;207.17;;;;;;;;;;4986238;28;20722;-73
2023/10/01 04:48:26;;;;;;;465.53;195.47;;;;;;;;;;4987652;28;20198;-74
2023/10/01 04:50:53;;;;;;;428.87;178.43;;;;;;;;;;4990533;28;20233;-73
2023/10/01 04:53:22;;;;;;;439.47;186.37;;;;;;;;;;4990753;28;20228;-73
2023/10/01 04:56:05;;;;;;;482.83;212.50;;;;;;;;;;4986042;28;20332;-73
2023/10/01 04:58:38;;;;;;;464.80;198.57;;;;;;;;;;4990165;28;20224;-72
2023/10/01 05:01:10;;;;;;;447.10;188.77;;;;;;;;;;4990035;28;20603;-73
2023/10/01 05:03:39;;;;;;;468.20;198.13;;;;;;;;;;4984585;28;20194;-73
2023/10/01 05:06:09;;;;;;;445.10;188.13;;;;;;;;;;4988592;28;20249;-73
2023/10/01 05:08:39;;;;;;;423.53;176.47;;;;;;;;;;4989197;28;20286;-72
2023/10/01 05:11:10;;;;;;;433.20;177.20;;;;;;;;;;4991747;28;20217;-73
2023/10/01 05:13:36;;;;;;;428.87;182.20;;;;;;;;;;4994390;28;20224;-73
2023/10/01 05:16:06;;;;;;;451.13;192.30;;;;;;;;;;4986995;28;20196;-73
2023/10/01 05:18:33;;;;;;;488.87;213.77;;;;;;;;;;4988691;28;20205;-73
2023/10/01 05:20:59;;;;;;;471.93;203.57;;;;;;;;;;4989723;28;20346;-73
2023/10/01 05:23:25;;;;;;;453.23;189.13;;;;;;;;;;4993309;28;20323;-75
2023/10/01 05:25:51;;;;;;;448.57;186.53;;;;;;;;;;4990175;28;20358;-80
2023/10/01 05:28:23;;;;;;;433.07;179.33;;;;;;;;;;4987544;28;20634;-78
2023/10/01 05:30:57;;;;;;;424.47;178.60;;;;;;;;;;4995564;28;20272;-78
2023/10/01 05:33:24;;;;;;;468.17;201.77;;;;;;;;;;4995981;28;20302;-79
2023/10/01 05:35:54;;;;;;;456.43;192.87;;;;;;;;;;4993261;28;20264;-79
2023/10/01 05:38:21;;;;;;;451.43;187.87;;;;;;;;;;4981600;28;21543;-81
2023/10/01 05:40:52;;;;;;;463.77;197.10;;;;;;;;;;4981536;28;20686;-80
2023/10/01 05:43:18;;;;;;;446.87;190.27;;;;;;;;;;4985796;28;20216;-82
2023/10/01 05:45:50;;;;;;;454.20;191.23;;;;;;;;;;4986880;28;20295;-79
2023/10/01 05:48:20;;;;;;;467.73;196.33;;;;;;;;;;4985583;28;21014;-80
2023/10/01 05:50:49;;;;;;;426.60;176.00;;;;;;;;;;4988495;28;20225;-79
2023/10/01 05:53:17;;;;;;;482.90;209.77;;;;;;;;;;4985460;28;20240;-75
2023/10/01 05:55:43;;;;;;;566.17;263.30;;;;;;;;;;4974999;28;20463;-75
2023/10/01 05:58:12;;;;;;;490.90;214.77;;;;;;;;;;4990324;28;20225;-76
2023/10/01 06:00:44;;;;;;;417.23;174.13;;;;;;;;;;4981097;28;20596;-75
2023/10/01 06:03:10;;;;;;;474.17;211.37;;;;;;;;;;4977446;28;20938;-75
2023/10/01 06:08:17;;;;;;;438.53;190.17;;;;;;;;;;4992176;28;20208;-75
2023/10/01 06:11:05;;;;;;;455.07;192.43;;;;;;;;;;4983044;28;20307;-75
2023/10/01 06:13:37;;;;;;;439.97;189.57;;;;;;;;;;4988633;28;20340;-75
2023/10/01 06:16:16;;;;;;;436.27;187.70;;;;;;;;;;4982640;28;20175;-75
2023/10/01 06:18:49;;;;;;;468.73;206.67;;;;;;;;;;4996869;28;20899;-75
2023/10/01 06:21:17;;;;;;;495.20;220.23;;;;;;;;;;4985465;28;20739;-75
2023/10/01 06:23:49;;;;;;;444.10;197.13;;;;;;;;;;4993259;28;20223;-74
2023/10/01 06:26:19;;;;;;;447.70;192.80;;;;;;;;;;4993024;28;20646;-75
2023/10/01 06:28:46;;;;;;;423.60;181.60;;;;;;;;;;4993348;28;20226;-75
2023/10/01 06:31:12;;;;;;;518.67;233.13;;;;;;;;;;4975045;28;20228;-75
2023/10/01 06:33:38;;;;;;;453.07;190.60;;;;;;;;;;4985968;28;20257;-74
2023/10/01 06:36:16;;;;;;;485.83;213.50;;;;;;;;;;4991880;28;20221;-74
2023/10/01 06:38:44;;;;;;;427.77;184.57;;;;;;;;;;4988391;28;20365;-73
2023/10/01 06:41:13;;;;;;;450.37;196.17;;;;;;;;;;4984789;28;20233;-73
2023/10/01 06:43:49;;;;;;;440.93;187.87;;;;;;;;;;4985167;28;20214;-73
2023/10/01 06:46:19;;;;;;;452.47;197.33;;;;;;;;;;4986278;28;20217;-74
2023/10/01 06:48:47;;;;;;;463.33;198.27;;;;;;;;;;4989883;28;20204;-73
2023/10/01 06:51:13;;;;;;;455.77;198.73;;;;;;;;;;4984032;28;20315;-73
2023/10/01 06:53:45;;;;;;;432.57;186.37;;;;;;;;;;4988269;28;20223;-73
2023/10/01 06:56:16;;;;;;;481.73;219.97;;;;;;;;;;4985891;28;20935;-74
2023/10/01 06:59:01;;;;;;;473.43;210.90;;;;;;;;;;4988699;28;20312;-74
2023/10/01 07:02:01;;;;;;;430.63;189.83;;;;;;;;;;4979994;28;20279;-73
2023/10/01 07:04:23;;;;;;;459.50;205.40;;;;;;;;;;4976584;28;20232;-73
2023/10/01 07:06:50;;;;;;;448.33;194.37;;;;;;;;;;4981133;28;20200;-73
2023/10/01 07:09:32;;;;;;;468.73;209.17;;;;;;;;;;4976360;28;20910;-74
2023/10/01 07:11:59;;;;;;;436.90;193.57;;;;;;;;;;4976459;28;20244;-74
2023/10/01 07:14:38;;;;;;;446.97;204.27;;;;;;;;;;4982180;28;20221;-73
2023/10/01 07:17:14;;;;;;;443.60;194.80;;;;;;;;;;4984412;28;20223;-74
2023/10/01 07:19:43;;;;;;;428.17;186.97;;;;;;;;;;4992211;28;20223;-74
2023/10/01 07:22:09;;;;;;;462.63;211.23;;;;;;;;;;4993613;28;20220;-74
2023/10/01 07:24:40;;;;;;;434.07;193.53;;;;;;;;;;4982143;28;20205;-73
2023/10/01 07:27:06;;;;;;;457.87;197.50;;;;;;;;;;4978600;28;20206;-75
2023/10/01 07:29:36;;;;;;;500.90;227.73;;;;;;;;;;4981210;28;20276;-75
2023/10/01 07:32:07;;;;;;;476.83;219.33;;;;;;;;;;4978679;28;20229;-73
2023/10/01 07:34:35;;;;;;;455.47;203.77;;;;;;;;;;4988806;28;20421;-75
2023/10/01 07:37:01;;;;;;;471.80;218.50;;;;;;;;;;4982635;28;20186;-74
2023/10/01 07:39:37;;;;;;;457.30;201.23;;;;;;;;;;4987809;28;20220;-74
2023/10/01 07:42:10;;;;;;;447.03;205.30;;;;;;;;;;4984076;28;20217;-74
2023/10/01 07:44:37;;;;;;;460.70;204.57;;;;;;;;;;4982469;28;20217;-75
2023/10/01 07:47:03;;;;;;;443.43;193.80;;;;;;;;;;4979504;28;20247;-74
2023/10/01 07:49:46;;;;;;;459.27;207.00;;;;;;;;;;4980239;28;20337;-76
2023/10/01 07:52:13;;;;;;;498.43;235.60;;;;;;;;;;4977409;28;20347;-76
2023/10/01 07:54:39;;;;;;;455.93;200.40;;;;;;;;;;4980755;28;20210;-75
2023/10/01 07:57:08;;;;;;;432.90;196.50;;;;;;;;;;4979302;28;20217;-76
2023/10/01 07:59:34;;;;;;;450.53;208.67;;;;;;;;;;4980941;28;20217;-74
2023/10/01 08:02:19;;;;;;;457.63;209.93;;;;;;;;;;4983910;28;20217;-76
2023/10/01 08:07:15;;;;;;;475.17;217.87;;;;;;;;;;4983713;28;20233;-70
2023/10/01 08:09:51;;;;;;;454.87;206.13;;;;;;;;;;4985674;28;20205;-74
2023/10/01 08:12:19;;;;;;;457.30;207.53;;;;;;;;;;4978033;28;20229;-72
2023/10/01 08:15:15;;;;;;;466.30;217.63;;;;;;;;;;4976445;28;20217;-70
2023/10/01 08:17:34;;;;;;;459.80;209.70;;;;;;;;;;4974927;28;20339;-70
2023/10/01 08:20:14;;;;;;;442.50;200.93;;;;;;;;;;4980693;28;20209;-74
2023/10/01 08:22:43;;;;;;;447.53;204.90;;;;;;;;;;4978669;28;20221;-75
2023/10/01 08:25:09;;;;;;;443.13;205.30;;;;;;;;;;4982892;28;20228;-78
2023/10/01 08:28:07;;;;;;;438.23;201.93;;;;;;;;;;4982894;28;20184;-76
2023/10/01 08:30:38;;;;;;;433.37;203.90;;;;;;;;;;4979589;28;20221;-72
2023/10/01 08:33:18;;;;;;;444.63;210.53;;;;;;;;;;4981693;28;20594;-73
2023/10/01 08:35:56;;;;;;;440.23;205.27;;;;;;;;;;4983306;28;20209;-71
2023/10/01 08:38:22;;;;;;;461.70;225.27;;;;;;;;;;4982283;28;20296;-73
2023/10/01 08:40:49;;;;;;;449.50;215.27;;;;;;;;;;4971785;28;20313;-70
2023/10/01 08:43:16;;;;;;;461.93;221.97;;;;;;;;;;4977841;28;20241;-70
2023/10/01 08:45:43;;;;;;;463.97;225.50;;;;;;;;;;4979637;28;20280;-69
2023/10/01 08:48:17;;;;;;;463.40;220.93;;;;;;;;;;4981016;28;20213;-71
2023/10/01 08:50:45;;;;;;;446.87;208.53;;;;;;;;;;4976064;28;20247;-71
2023/10/01 08:53:12;;;;;;;430.47;199.80;;;;;;;;;;4980581;28;20817;-72
2023/10/01 08:55:39;;;;;;;426.30;202.30;;;;;;;;;;4980546;28;20299;-71
2023/10/01 08:58:15;;;;;;;478.63;239.63;;;;;;;;;;4980706;28;20196;-70
2023/10/01 09:01:10;;;;;;;450.83;218.00;;;;;;;;;;4979709;28;20201;-71
2023/10/01 09:03:36;;;;;;;468.63;226.33;;;;;;;;;;4978116;28;20209;-71
2023/10/01 09:06:03;;;;;;;478.43;235.97;;;;;;;;;;4983287;28;20239;-74
2023/10/01 09:08:31;;;;;;;486.87;246.00;;;;;;;;;;4985308;28;20227;-74
2023/10/01 09:11:00;;;;;;;440.43;215.47;;;;;;;;;;4984205;28;20326;-71
2023/10/01 09:13:30;;;;;;;503.80;255.53;;;;;;;;;;4980190;28;20641;-70
2023/10/01 09:16:07;;;;;;;454.33;230.33;;;;;;;;;;4977474;28;20220;-72
2023/10/01 09:18:37;;;;;;;473.00;238.63;;;;;;;;;;4980550;28;20204;-71
2023/10/01 09:23:55;;;;;;;480.43;240.23;;;;;;;;;;4985018;28;20751;-71
2023/10/01 09:26:39;;;;;;;489.07;247.97;;;;;;;;;;4978175;28;20224;-72
2023/10/01 09:29:20;;;;;;;441.10;224.63;;;;;;;;;;4987854;28;20319;-71
2023/10/01 09:31:52;;;;;;;471.47;233.47;;;;;;;;;;4986892;28;20309;-71
2023/10/01 09:34:31;;;;;;;437.47;220.80;;;;;;;;;;4983692;28;20225;-71
2023/10/01 09:36:57;;;;;;;448.33;220.80;;;;;;;;;;4983611;28;20213;-71
2023/10/01 09:39:36;;;;;;;492.97;250.93;;;;;;;;;;4983841;28;20232;-71
2023/10/01 09:42:02;;;;;;;492.80;255.43;;;;;;;;;;4978294;28;20222;-72
2023/10/01 09:44:28;;;;;;;493.47;250.00;;;;;;;;;;4982834;28;20225;-70
2023/10/01 09:47:07;;;;;;;465.73;233.67;;;;;;;;;;4985570;28;20596;-71
2023/10/01 09:49:33;;;;;;;446.90;224.37;;;;;;;;;;4981755;28;20637;-72
2023/10/01 09:52:03;;;;;;;430.13;216.47;;;;;;;;;;4980769;28;20264;-72
2023/10/01 09:54:39;;;;;;;475.27;236.17;;;;;;;;;;4984353;28;20174;-71
2023/10/01 09:57:08;;;;;;;467.00;228.57;;;;;;;;;;4982469;28;20603;-71
2023/10/01 09:59:39;;;;;;;462.63;243.87;;;;;;;;;;4983839;28;20308;-71
2023/10/01 10:02:06;;;;;;;461.77;241.63;;;;;;;;;;4981594;28;20276;-72
2023/10/01 10:04:34;;;;;;;473.73;243.13;;;;;;;;;;4981912;28;20228;-71
2023/10/01 10:07:00;;;;;;;426.23;222.80;;;;;;;;;;4983962;28;20181;-71
2023/10/01 10:09:27;;;;;;;466.43;246.47;;;;;;;;;;4979418;28;20197;-71
2023/10/01 10:11:54;;;;;;;449.40;226.90;;;;;;;;;;4982242;28;20256;-71
2023/10/01 10:14:26;;;;;;;461.50;238.87;;;;;;;;;;4980282;28;20221;-71
2023/10/01 10:16:57;;;;;;;452.23;234.80;;;;;;;;;;4985345;28;20304;-71
2023/10/01 10:19:24;;;;;;;497.63;266.47;;;;;;;;;;5000860;23;20243;-55
2023/10/01 10:24:30;;;;;;;542.80;296.33;;;;;;;;;;4968358;28;20188;-56
2023/10/01 10:27:03;;;;;;;499.23;271.17;;;;;;;;;;4974288;28;20288;-56
2023/10/01 10:29:57;;;;;;;511.27;274.63;;;;;;;;;;4974990;28;20248;-56
2023/10/01 10:32:42;;;;;;;525.50;279.30;;;;;;;;;;4983460;28;20235;-56
2023/10/01 10:35:14;;;;;;;422.67;221.77;;;;;;;;;;4986201;28;20303;-56
2023/10/01 10:37:53;;;;;;;503.27;266.97;;;;;;;;;;4977743;28;20255;-56
2023/10/01 10:43:01;;;;;;;486.03;264.97;;;;;;;;;;4980475;28;20189;-56
2023/10/01 10:45:42;;;;;;;498.77;267.20;;;;;;;;;;4986287;28;20255;-56
2023/10/01 10:48:08;;;;;;;518.00;283.80;;;;;;;;;;4976283;28;20679;-56
2023/10/01 10:50:44;;;;;;;509.77;274.73;;;;;;;;;;4986821;28;20229;-56
2023/10/01 10:53:18;;;;;;;511.53;274.53;;;;;;;;;;4988201;28;20238;-55
2023/10/01 10:56:10;;;;;;;552.10;304.23;;;;;;;;;;4977025;28;20622;-56
2023/10/01 10:58:46;;;;;;;523.07;287.17;;;;;;;;;;4984900;28;20221;-56
2023/10/01 11:01:15;;;;;;;482.13;262.40;;;;;;;;;;4989269;28;20455;-56
2023/10/01 11:03:42;;;;;;;511.53;279.90;;;;;;;;;;4981354;28;20271;-55
2023/10/01 11:06:22;;;;;;;509.53;282.07;;;;;;;;;;4978201;28;20709;-55
2023/10/01 11:08:52;;;;;;;491.63;272.90;;;;;;;;;;4986578;28;20235;-56
2023/10/01 11:11:24;;;;;;;461.93;257.03;;;;;;;;;;4978207;28;20371;-55
2023/10/01 11:14:00;;;;;;;455.00;251.77;;;;;;;;;;4982294;28;20564;-57
2023/10/01 11:16:38;;;;;;;537.27;306.30;;;;;;;;;;4974629;28;20228;-57
2023/10/01 11:19:15;;;;;;;556.50;314.23;;;;;;;;;;4972169;28;20554;-57
2023/10/01 11:21:54;;;;;;;502.10;280.27;;;;;;;;;;4986881;28;20310;-56
2023/10/01 11:24:21;;;;;;;552.63;317.60;;;;;;;;;;4978920;28;20314;-55
2023/10/01 11:27:11;;;;;;;472.00;261.50;;;;;;;;;;4990315;28;20233;-55
2023/10/01 11:29:38;;;;;;;510.93;280.23;;;;;;;;;;4984046;28;20248;-55
2023/10/01 11:32:04;;;;;;;536.70;298.87;;;;;;;;;;4985445;28;20451;-56
2023/10/01 11:34:43;;;;;;;541.77;301.67;;;;;;;;;;4976560;28;20284;-55
2023/10/01 11:37:18;;;;;;;495.50;274.20;;;;;;;;;;4984283;28;20225;-56
2023/10/01 11:39:52;;;;;;;501.77;285.57;;;;;;;;;;4969322;28;20205;-55
2023/10/01 11:42:29;;;;;;;488.77;271.20;;;;;;;;;;4985925;28;20230;-55
2023/10/01 11:44:55;;;;;;;451.23;250.67;;;;;;;;;;4986970;28;20741;-55
2023/10/01 11:47:31;;;;;;;504.07;285.20;;;;;;;;;;4981880;28;20222;-54
2023/10/01 11:50:07;;;;;;;596.40;340.03;;;;;;;;;;4980040;28;20236;-56
2023/10/01 11:52:33;;;;;;;537.93;305.33;;;;;;;;;;4987615;28;20282;-55
2023/10/01 11:54:59;;;;;;;479.10;277.83;;;;;;;;;;4976513;28;20363;-55
2023/10/01 11:57:31;;;;;;;469.73;270.87;;;;;;;;;;4978185;28;20281;-55
2023/10/01 11:59:58;;;;;;;537.77;313.03;;;;;;;;;;4987793;28;20307;-54
2023/10/01 12:02:25;;;;;;;524.77;306.13;;;;;;;;;;4982241;28;20212;-55
2023/10/01 12:04:59;;;;;;;489.73;276.47;;;;;;;;;;4982155;28;20588;-54
2023/10/01 12:07:32;;;;;;;490.83;278.97;;;;;;;;;;4977861;28;20215;-55
2023/10/01 12:09:58;;;;;;;584.10;348.67;;;;;;;;;;4979236;28;20193;-55
2023/10/01 12:12:25;;;;;;;487.93;287.10;;;;;;;;;;4976191;28;20343;-55
2023/10/01 12:14:53;;;;;;;510.00;300.60;;;;;;;;;;4972654;28;20253;-55
2023/10/01 12:17:23;;;;;;;494.60;292.70;;;;;;;;;;4979480;28;20243;-56
2023/10/01 12:19:50;;;;;;;505.50;304.07;;;;;;;;;;4965238;28;20593;-56
2023/10/01 12:22:16;;;;;;;602.37;366.43;;;;;;;;;;4980693;28;20305;-56
2023/10/01 12:24:45;;;;;;;505.87;297.57;;;;;;;;;;4994643;28;20188;-56
2023/10/01 12:27:37;;;;;;;440.57;274.47;;;;;;;;;;5004789;28;20204;-56
2023/10/01 12:29:57;;;;;;;386.83;251.50;;;;;;;;;;5010394;28;20621;-56
2023/10/01 12:32:37;;;;;;;401.30;257.33;;;;;;;;;;5002549;28;20209;-56
2023/10/01 12:35:18;;;;;;;410.37;260.73;;;;;;;;;;5010608;28;20681;-56
2023/10/01 12:37:44;;;;;;;427.80;275.63;;;;;;;;;;5005417;28;20220;-56
2023/10/01 12:40:17;;;;;;;397.93;249.87;;;;;;;;;;5003124;28;20221;-56
2023/10/01 12:42:47;;;;;;;438.03;275.60;;;;;;;;;;5003909;28;20555;-56
2023/10/01 12:45:14;;;;;;;419.27;266.23;;;;;;;;;;5007937;28;20294;-56
2023/10/01 12:47:41;;;;;;;447.87;277.77;;;;;;;;;;5008390;28;20214;-56
2023/10/01 12:50:09;;;;;;;407.77;265.37;;;;;;;;;;5003237;28;20254;-57
2023/10/01 12:52:35;;;;;;;439.83;279.77;;;;;;;;;;5007408;28;20764;-56
2023/10/01 12:55:04;;;;;;;396.33;254.10;;;;;;;;;;5007096;28;20583;-56
2023/10/01 12:57:38;;;;;;;433.63;275.47;;;;;;;;;;5001231;28;20291;-56
2023/10/01 13:00:38;;;;;;;402.53;257.87;;;;;;;;;;5004357;28;20232;-56
2023/10/01 13:03:09;;;;;;;408.40;261.80;;;;;;;;;;5000669;28;21019;-56
2023/10/01 13:05:43;;;;;;;411.17;270.97;;;;;;;;;;5007888;28;20733;-56
2023/10/01 13:08:11;;;;;;;423.37;275.10;;;;;;;;;;5007109;28;20266;-56
2023/10/01 13:10:37;;;;;;;431.77;278.47;;;;;;;;;;5007002;28;20646;-56
2023/10/01 13:13:07;;;;;;;392.30;255.93;;;;;;;;;;5005837;28;20196;-56
2023/10/01 13:15:43;;;;;;;440.10;284.23;;;;;;;;;;5005991;28;20188;-56
2023/10/01 13:18:17;;;;;;;515.70;310.67;;;;;;;;;;4963444;28;20227;-56
2023/10/01 13:23:24;;;;;;;535.67;327.37;;;;;;;;;;4977692;28;20219;-56
2023/10/01 13:26:05;;;;;;;501.60;304.67;;;;;;;;;;4986483;28;20248;-56
2023/10/01 13:28:43;;;;;;;483.13;294.40;;;;;;;;;;4978645;28;20316;-55
2023/10/01 13:31:12;;;;;;;477.07;296.00;;;;;;;;;;4977495;28;20220;-56
2023/10/01 13:33:56;;;;;;;544.00;327.87;;;;;;;;;;4975146;28;20219;-56
2023/10/01 13:36:35;;;;;;;520.00;309.23;;;;;;;;;;4974326;28;21655;-56
2023/10/01 14:09:46;;;;;;;532.60;401.00;;;;;;;;;;4987943;28;20219;-56
2023/10/01 14:12:05;;;;;;;516.17;398.87;;;;;;;;;;4989345;28;20289;-56
2023/10/01 14:14:33;;;;;;;502.13;394.43;;;;;;;;;;4980070;28;20244;-56
2023/10/01 14:17:12;;;;;;;558.43;443.13;;;;;;;;;;4980711;28;20220;-56
2023/10/01 14:19:41;;;;;;;543.97;429.87;;;;;;;;;;4984066;28;20220;-56
2023/10/01 14:22:07;;;;;;;552.10;425.00;;;;;;;;;;4976062;28;20188;-56
2023/10/01 14:24:42;;;;;;;497.97;399.83;;;;;;;;;;4990651;28;20578;-55
2023/10/01 14:27:07;;;;;;;568.83;431.27;;;;;;;;;;4982250;28;20222;-57
2023/10/01 14:29:33;;;;;;;565.07;418.23;;;;;;;;;;4976836;28;20220;-56
2023/10/01 14:32:10;;;;;;;577.33;445.03;;;;;;;;;;4973568;28;20753;-56
2023/10/01 14:34:36;;;;;;;623.10;462.93;;;;;;;;;;4975375;28;20211;-56
2023/10/01 14:37:02;;;;;;;550.80;430.77;;;;;;;;;;4977364;28;20665;-56
2023/10/01 14:39:31;;;;;;;548.87;413.20;;;;;;;;;;4989581;28;20192;-57
2023/10/01 14:41:57;;;;;;;548.50;409.20;;;;;;;;;;4983121;28;20212;-56
2023/10/01 14:44:26;;;;;;;486.33;369.60;;;;;;;;;;4983234;28;20216;-56
2023/10/01 14:46:54;;;;;;;519.73;364.70;;;;;;;;;;4980366;28;20217;-56
2023/10/01 14:49:23;;;;;;;537.27;375.77;;;;;;;;;;4979349;28;20221;-56
2023/10/01 14:51:49;;;;;;;538.73;372.83;;;;;;;;;;4978486;28;25610;-56
2023/10/01 14:54:18;;;;;;;511.00;350.03;;;;;;;;;;4990396;28;20213;-56
2023/10/01 14:56:46;;;;;;;532.90;359.80;;;;;;;;;;4986575;28;20202;-56
2023/10/01 14:59:14;;;;;;;523.87;364.10;;;;;;;;;;4980546;28;20251;-56
2023/10/01 15:01:40;;;;;;;529.03;351.20;;;;;;;;;;4981872;28;20205;-56
2023/10/01 15:04:22;;;;;;;475.60;321.00;;;;;;;;;;4987924;28;20207;-56
2023/10/01 15:06:57;;;;;;;467.83;316.77;;;;;;;;;;4990965;28;20319;-56
2023/10/01 15:09:32;;;;;;;528.63;341.40;;;;;;;;;;4987328;28;20805;-56
2023/10/01 15:11:58;;;;;;;493.63;325.07;;;;;;;;;;4979122;28;27792;-56